createdAt,value
2022-10-30T00:01:35.594Z,22.30
2022-10-30T00:04:04.806Z,22.30
2022-10-30T00:06:34.004Z,22.30
2022-10-30T00:09:03.035Z,22.30
2022-10-30T00:11:32.181Z,22.30
2022-10-30T00:14:01.376Z,22.40
2022-10-30T00:16:30.954Z,22.40
2022-10-30T00:19:00.214Z,22.50
2022-10-30T00:21:29.364Z,22.50
2022-10-30T00:23:58.412Z,22.50
2022-10-30T00:26:28.983Z,22.50
2022-10-30T00:28:59.098Z,22.60
2022-10-30T00:31:28.472Z,22.70
2022-10-30T00:33:57.857Z,22.70
2022-10-30T00:36:26.982Z,22.80
2022-10-30T00:38:56.082Z,22.80
2022-10-30T00:41:26.552Z,22.90
2022-10-30T00:43:55.673Z,22.90
2022-10-30T00:46:41.587Z,23.00
2022-10-30T00:49:18.659Z,23.00
2022-10-30T00:51:53.615Z,23.10
2022-10-30T00:54:24.110Z,23.20
2022-10-30T00:56:53.778Z,23.20
2022-10-30T00:59:31.857Z,23.30
2022-10-30T01:02:03.981Z,23.40
2022-10-30T01:04:37.758Z,23.50
2022-10-30T01:07:18.208Z,23.60
2022-10-30T01:09:49.380Z,23.70
2022-10-30T01:12:18.933Z,23.70
2022-10-30T01:14:57.540Z,23.80
2022-10-30T01:17:49.151Z,23.90
2022-10-30T01:20:46.657Z,24.00
2022-10-30T01:23:21.314Z,24.10
2022-10-30T01:26:15.983Z,24.20
2022-10-30T01:29:28.056Z,24.30
2022-10-30T01:32:41.145Z,24.40
2022-10-30T01:35:29.631Z,24.50
2022-10-30T01:38:09.041Z,24.60
2022-10-30T01:40:39.178Z,24.70
2022-10-30T01:43:10.223Z,24.80
2022-10-30T01:46:18.939Z,24.90
2022-10-30T01:49:07.505Z,25.00
2022-10-30T01:51:46.476Z,25.10
2022-10-30T01:54:48.684Z,25.10
2022-10-30T01:57:57.508Z,25.20
2022-10-30T02:00:28.021Z,25.30
2022-10-30T02:02:57.665Z,25.40
2022-10-30T02:05:43.637Z,25.50
2022-10-30T02:08:13.055Z,25.50
2022-10-30T02:10:46.225Z,25.60
2022-10-30T02:13:15.831Z,25.70
2022-10-30T02:15:46.505Z,25.70
2022-10-30T02:18:15.674Z,25.80
2022-10-30T02:20:45.004Z,25.80
2022-10-30T02:23:17.737Z,25.90
2022-10-30T02:25:47.702Z,25.90
2022-10-30T02:28:16.852Z,26.00
2022-10-30T02:30:46.283Z,26.10
2022-10-30T02:33:15.430Z,26.10
2022-10-30T02:35:44.662Z,26.20
2022-10-30T02:38:13.838Z,26.30
2022-10-30T02:40:43.048Z,26.40
2022-10-30T02:43:27.514Z,26.40
2022-10-30T02:45:56.582Z,26.50
2022-10-30T02:48:25.674Z,26.60
2022-10-30T02:50:54.779Z,26.60
2022-10-30T02:53:23.951Z,26.70
2022-10-30T02:55:53.018Z,26.80
2022-10-30T02:58:22.169Z,26.90
2022-10-30T03:00:51.355Z,27.00
2022-10-30T03:03:23.169Z,27.10
2022-10-30T03:05:53.327Z,27.10
2022-10-30T03:08:22.426Z,27.20
2022-10-30T03:10:51.510Z,27.20
2022-10-30T03:13:20.560Z,27.30
2022-10-30T03:15:49.603Z,27.40
2022-10-30T03:18:18.728Z,27.40
2022-10-30T03:20:47.790Z,27.50
2022-10-30T03:23:16.849Z,27.50
2022-10-30T03:25:46.049Z,27.60
2022-10-30T03:28:15.122Z,27.60
2022-10-30T03:30:44.226Z,27.70
2022-10-30T03:33:13.389Z,27.80
2022-10-30T03:35:44.361Z,27.80
2022-10-30T03:38:14.845Z,27.90
2022-10-30T03:40:43.914Z,28.00
2022-10-30T03:43:13.106Z,28.10
2022-10-30T03:45:47.003Z,28.10
2022-10-30T03:48:17.354Z,28.20
2022-10-30T03:50:47.318Z,28.20
2022-10-30T03:53:17.750Z,28.30
2022-10-30T03:55:46.898Z,28.40
2022-10-30T03:58:16.033Z,28.50
2022-10-30T04:00:45.314Z,28.60
2022-10-30T04:03:14.470Z,28.70
2022-10-30T04:05:43.841Z,28.80
2022-10-30T04:08:16.622Z,28.80
2022-10-30T04:10:48.415Z,28.90
2022-10-30T04:13:21.336Z,29.00
2022-10-30T04:15:55.943Z,29.10
2022-10-30T04:18:27.746Z,29.10
2022-10-30T04:20:57.385Z,29.20
2022-10-30T04:23:26.566Z,29.30
2022-10-30T04:25:55.953Z,29.30
2022-10-30T04:28:25.141Z,29.40
2022-10-30T04:30:54.290Z,29.40
2022-10-30T04:33:23.526Z,29.50
2022-10-30T04:35:52.710Z,29.60
2022-10-30T04:38:21.880Z,29.70
2022-10-30T04:40:51.131Z,29.70
2022-10-30T04:43:20.948Z,29.80
2022-10-30T04:45:50.132Z,29.90
2022-10-30T04:48:20.726Z,30.00
2022-10-30T04:50:49.920Z,30.10
2022-10-30T04:53:22.069Z,30.20
2022-10-30T04:55:56.061Z,30.30
2022-10-30T04:58:25.411Z,30.40
2022-10-30T05:00:57.723Z,30.40
2022-10-30T05:03:29.505Z,30.40
2022-10-30T05:06:21.852Z,30.40
2022-10-30T05:08:52.142Z,30.30
2022-10-30T05:11:21.525Z,30.30
2022-10-30T05:13:50.952Z,30.40
2022-10-30T05:16:20.209Z,30.40
2022-10-30T05:18:49.425Z,30.50
2022-10-30T05:21:18.560Z,30.50
2022-10-30T05:23:47.773Z,30.60
2022-10-30T05:26:17.211Z,30.70
2022-10-30T05:28:46.355Z,30.80
2022-10-30T05:31:15.515Z,30.90
2022-10-30T05:33:44.661Z,31.00
2022-10-30T05:36:13.816Z,31.20
2022-10-30T05:38:42.964Z,31.20
2022-10-30T05:41:12.058Z,31.30
2022-10-30T05:43:42.244Z,31.30
2022-10-30T05:46:11.407Z,31.40
2022-10-30T05:48:40.688Z,31.40
2022-10-30T05:51:09.855Z,31.50
2022-10-30T05:53:38.997Z,31.50
2022-10-30T05:56:08.410Z,31.50
2022-10-30T05:58:38.255Z,31.50
2022-10-30T06:01:09.403Z,31.50
2022-10-30T06:03:38.609Z,31.60
2022-10-30T06:06:08.240Z,31.70
2022-10-30T06:08:37.460Z,31.70
2022-10-30T06:11:07.718Z,31.80
2022-10-30T06:13:36.909Z,31.90
2022-10-30T06:16:06.456Z,32.00
2022-10-30T06:18:35.574Z,32.10
2022-10-30T06:21:04.791Z,32.20
2022-10-30T06:23:34.153Z,32.20
2022-10-30T06:26:03.271Z,32.20
2022-10-30T06:28:32.529Z,32.20
2022-10-30T06:31:01.656Z,32.30
2022-10-30T06:33:30.838Z,32.30
2022-10-30T06:35:59.996Z,32.40
2022-10-30T06:38:29.281Z,32.40
2022-10-30T06:40:58.550Z,32.40
2022-10-30T06:43:28.114Z,32.40
2022-10-30T06:46:00.267Z,32.40
2022-10-30T06:48:29.692Z,32.40
2022-10-30T06:51:00.575Z,32.40
2022-10-30T06:53:29.879Z,32.40
2022-10-30T06:56:06.277Z,32.30
2022-10-30T06:58:39.980Z,32.40
2022-10-30T07:01:09.953Z,32.30
2022-10-30T07:03:39.098Z,32.30
2022-10-30T07:06:08.751Z,32.30
2022-10-30T07:08:37.972Z,32.20
2022-10-30T07:11:07.202Z,32.20
2022-10-30T07:13:36.836Z,32.20
2022-10-30T07:16:06.270Z,32.20
2022-10-30T07:18:35.414Z,32.20
2022-10-30T07:21:04.592Z,32.10
2022-10-30T07:23:33.820Z,32.10
2022-10-30T07:26:04.381Z,31.90
2022-10-30T07:28:33.767Z,31.80
2022-10-30T07:31:03.417Z,31.70
2022-10-30T07:33:32.577Z,31.60
2022-10-30T07:36:04.881Z,31.60
2022-10-30T07:38:34.028Z,31.50
2022-10-30T07:41:03.170Z,31.50
2022-10-30T07:43:32.339Z,31.40
2022-10-30T07:46:02.144Z,31.40
2022-10-30T07:48:31.357Z,31.30
2022-10-30T07:51:00.562Z,31.30
2022-10-30T07:53:30.853Z,31.30
2022-10-30T07:56:00.192Z,31.20
2022-10-30T07:58:29.327Z,31.20
2022-10-30T08:00:58.478Z,31.20
2022-10-30T08:03:27.756Z,31.30
2022-10-30T08:05:57.081Z,31.20
2022-10-30T08:08:26.333Z,31.20
2022-10-30T08:10:55.492Z,31.10
2022-10-30T08:13:24.649Z,31.00
2022-10-30T08:15:53.782Z,31.00
2022-10-30T08:18:23.104Z,30.90
2022-10-30T08:20:52.322Z,30.90
2022-10-30T08:23:22.771Z,30.80
2022-10-30T08:25:51.935Z,30.70
2022-10-30T08:28:21.778Z,30.70
2022-10-30T08:30:50.952Z,30.60
2022-10-30T08:33:21.172Z,30.60
2022-10-30T08:35:52.955Z,30.60
2022-10-30T08:38:22.507Z,30.60
2022-10-30T08:40:51.685Z,30.70
2022-10-30T08:43:21.710Z,30.70
2022-10-30T08:45:50.826Z,30.80
2022-10-30T08:48:20.038Z,30.90
2022-10-30T08:50:49.282Z,31.00
2022-10-30T08:53:18.497Z,31.00
2022-10-30T08:55:47.621Z,31.10
2022-10-30T08:58:16.816Z,31.20
2022-10-30T09:00:45.936Z,31.30
2022-10-30T09:03:15.533Z,31.30
2022-10-30T09:05:44.730Z,31.30
2022-10-30T09:08:13.852Z,31.30
2022-10-30T09:10:45.952Z,31.30
2022-10-30T09:13:15.237Z,31.20
2022-10-30T09:15:45.015Z,31.10
2022-10-30T09:18:14.169Z,31.00
2022-10-30T09:20:43.405Z,31.00
2022-10-30T09:23:12.605Z,30.90
2022-10-30T09:25:41.795Z,30.90
2022-10-30T09:28:11.041Z,30.80
2022-10-30T09:30:40.209Z,30.70
2022-10-30T09:33:10.226Z,30.70
2022-10-30T09:35:39.436Z,30.60
2022-10-30T09:38:08.641Z,30.50
2022-10-30T09:41:14.885Z,30.40
2022-10-30T09:44:30.885Z,30.40
2022-10-30T09:47:09.734Z,30.20
2022-10-30T09:49:56.755Z,30.20
2022-10-30T09:52:40.419Z,30.20
2022-10-30T09:55:22.109Z,30.10
2022-10-30T09:58:05.010Z,30.00
2022-10-30T10:01:00.711Z,30.00
2022-10-30T10:04:08.897Z,30.00
2022-10-30T10:06:45.828Z,29.90
2022-10-30T10:09:22.132Z,29.90
2022-10-30T10:12:09.704Z,29.80
2022-10-30T10:14:45.470Z,29.70
2022-10-30T10:17:31.847Z,29.60
2022-10-30T10:20:03.293Z,29.60
2022-10-30T10:22:39.160Z,29.60
2022-10-30T10:25:17.511Z,29.50
2022-10-30T10:28:13.588Z,29.40
2022-10-30T10:31:18.668Z,29.40
2022-10-30T10:34:24.718Z,29.30
2022-10-30T10:37:22.165Z,29.20
2022-10-30T10:40:42.489Z,29.10
2022-10-30T10:43:45.328Z,29.00
2022-10-30T10:46:38.322Z,29.00
2022-10-30T10:49:21.972Z,28.90
2022-10-30T10:52:03.457Z,28.90
2022-10-30T10:54:46.270Z,28.80
2022-10-30T10:57:30.530Z,28.80
2022-10-30T11:00:14.499Z,28.70
2022-10-30T11:03:06.140Z,28.60
2022-10-30T11:06:16.264Z,28.50
2022-10-30T11:08:45.412Z,28.50
2022-10-30T11:11:15.598Z,28.40
2022-10-30T11:13:48.785Z,28.40
2022-10-30T11:16:39.158Z,28.30
2022-10-30T11:19:11.448Z,28.30
2022-10-30T11:21:50.669Z,28.20
2022-10-30T11:24:37.123Z,28.20
2022-10-30T11:27:38.232Z,28.20
2022-10-30T11:30:18.518Z,28.10
2022-10-30T11:32:48.151Z,28.10
2022-10-30T11:35:21.435Z,28.00
2022-10-30T11:38:15.393Z,28.00
2022-10-30T11:40:52.807Z,27.90
2022-10-30T11:43:27.146Z,27.80
2022-10-30T11:45:56.714Z,27.80
2022-10-30T11:48:38.919Z,27.80
2022-10-30T11:51:08.346Z,27.70
2022-10-30T11:53:49.854Z,27.70
2022-10-30T11:56:24.143Z,27.60
2022-10-30T11:59:00.229Z,27.60
2022-10-30T12:01:39.974Z,27.50
2022-10-30T12:04:26.228Z,27.40
2022-10-30T12:07:38.269Z,27.40
2022-10-30T12:10:26.834Z,27.40
2022-10-30T12:12:57.096Z,27.30
2022-10-30T12:15:30.278Z,27.30
2022-10-30T12:18:06.517Z,27.20
2022-10-30T12:20:39.705Z,27.20
2022-10-30T12:23:23.022Z,27.20
2022-10-30T12:26:00.271Z,27.10
2022-10-30T12:28:33.799Z,27.10
2022-10-30T12:31:21.468Z,27.10
2022-10-30T12:34:00.387Z,27.10
2022-10-30T12:36:38.846Z,27.10
2022-10-30T12:39:14.291Z,27.10
2022-10-30T12:41:49.827Z,27.00
2022-10-30T12:44:35.375Z,27.00
2022-10-30T12:47:21.462Z,27.00
2022-10-30T12:50:02.124Z,27.00
2022-10-30T12:52:41.625Z,27.00
2022-10-30T12:55:42.802Z,27.00
2022-10-30T12:58:29.428Z,27.00
2022-10-30T13:01:35.506Z,27.00
2022-10-30T13:04:47.419Z,27.00
2022-10-30T13:07:25.146Z,26.90
2022-10-30T13:10:33.471Z,26.90
2022-10-30T13:13:19.336Z,26.90
2022-10-30T13:15:59.385Z,26.80
2022-10-30T13:18:34.689Z,26.80
2022-10-30T13:21:12.686Z,26.80
2022-10-30T13:23:55.844Z,26.70
2022-10-30T13:26:39.966Z,26.70
2022-10-30T13:29:35.159Z,26.60
2022-10-30T13:32:13.231Z,26.60
2022-10-30T13:34:57.729Z,26.60
2022-10-30T13:37:53.724Z,26.60
2022-10-30T13:40:43.848Z,26.60
2022-10-30T13:43:42.724Z,26.60
2022-10-30T13:46:48.326Z,26.50
2022-10-30T13:50:07.117Z,26.40
2022-10-30T13:52:47.905Z,26.40
2022-10-30T13:55:31.082Z,26.40
2022-10-30T13:58:41.550Z,26.30
2022-10-30T14:01:29.767Z,26.30
2022-10-30T14:04:01.710Z,26.20
2022-10-30T14:07:07.885Z,26.20
2022-10-30T14:09:52.302Z,26.20
2022-10-30T14:12:58.878Z,26.20
2022-10-30T14:15:35.537Z,26.10
2022-10-30T14:18:18.876Z,26.10
2022-10-30T14:20:53.068Z,26.00
2022-10-30T14:23:28.881Z,26.00
2022-10-30T14:26:14.167Z,25.90
2022-10-30T14:28:47.194Z,25.90
2022-10-30T14:31:33.437Z,25.90
2022-10-30T14:34:02.692Z,25.90
2022-10-30T14:36:41.060Z,25.80
2022-10-30T14:39:13.318Z,25.80
2022-10-30T14:41:57.494Z,25.80
2022-10-30T14:44:38.095Z,25.80
2022-10-30T14:47:59.421Z,25.70
2022-10-30T14:50:28.620Z,25.60
2022-10-30T14:53:35.243Z,25.60
2022-10-30T14:56:49.588Z,25.60
2022-10-30T14:59:18.691Z,25.60
2022-10-30T15:02:02.700Z,25.60
2022-10-30T15:05:16.805Z,25.60
2022-10-30T15:08:13.418Z,25.50
2022-10-30T15:11:03.067Z,25.50
2022-10-30T15:13:32.386Z,25.40
2022-10-30T15:16:10.125Z,25.40
2022-10-30T15:18:42.145Z,25.40
2022-10-30T15:21:24.038Z,25.40
2022-10-30T15:23:58.674Z,25.40
2022-10-30T15:26:37.073Z,25.40
2022-10-30T15:29:07.078Z,25.40
2022-10-30T15:31:36.229Z,25.40
2022-10-30T15:34:27.491Z,25.40
2022-10-30T15:36:56.900Z,25.30
2022-10-30T15:39:26.898Z,25.30
2022-10-30T15:42:03.429Z,25.30
2022-10-30T15:44:36.567Z,25.30
2022-10-30T15:47:18.269Z,25.30
2022-10-30T15:49:58.147Z,25.30
2022-10-30T15:52:31.743Z,25.30
2022-10-30T15:55:10.495Z,25.30
2022-10-30T15:58:03.991Z,25.30
2022-10-30T16:00:38.254Z,25.30
2022-10-30T16:03:17.294Z,25.20
2022-10-30T16:05:47.942Z,25.20
2022-10-30T16:08:26.967Z,25.10
2022-10-30T16:10:57.576Z,25.10
2022-10-30T16:13:32.795Z,25.10
2022-10-30T16:16:05.044Z,25.10
2022-10-30T16:18:37.296Z,25.00
2022-10-30T16:21:16.009Z,25.00
2022-10-30T16:23:58.243Z,25.00
2022-10-30T16:26:39.759Z,25.00
2022-10-30T16:29:25.922Z,25.00
2022-10-30T16:31:56.198Z,24.90
2022-10-30T16:34:35.834Z,24.90
2022-10-30T16:37:33.057Z,24.90
2022-10-30T16:40:16.442Z,24.90
2022-10-30T16:42:56.392Z,24.90
2022-10-30T16:45:25.721Z,24.80
2022-10-30T16:48:08.460Z,24.80
2022-10-30T16:50:40.484Z,24.80
2022-10-30T16:53:25.161Z,24.80
2022-10-30T16:55:57.569Z,24.80
2022-10-30T16:58:33.893Z,24.70
2022-10-30T17:01:08.440Z,24.70
2022-10-30T17:03:42.682Z,24.70
2022-10-30T17:06:48.283Z,24.70
2022-10-30T17:09:29.807Z,24.70
2022-10-30T17:12:20.038Z,24.60
2022-10-30T17:15:21.878Z,24.60
2022-10-30T17:18:16.686Z,24.60
2022-10-30T17:20:46.077Z,24.60
2022-10-30T17:23:22.083Z,24.50
2022-10-30T17:25:51.367Z,24.50
2022-10-30T17:28:35.165Z,24.40
2022-10-30T17:31:53.231Z,24.40
2022-10-30T17:34:22.518Z,24.40
2022-10-30T17:36:51.873Z,24.40
2022-10-30T17:39:21.050Z,24.40
2022-10-30T17:41:58.743Z,24.30
2022-10-30T17:44:31.448Z,24.40
2022-10-30T17:47:02.291Z,24.40
2022-10-30T17:49:33.731Z,24.30
2022-10-30T17:52:03.439Z,24.30
2022-10-30T17:54:33.056Z,24.30
2022-10-30T17:57:02.145Z,24.30
2022-10-30T17:59:31.413Z,24.30
2022-10-30T18:02:02.236Z,24.30
2022-10-30T18:04:31.544Z,24.30
2022-10-30T18:07:00.642Z,24.30
2022-10-30T18:09:29.774Z,24.20
2022-10-30T18:11:58.932Z,24.20
2022-10-30T18:14:28.132Z,24.20
2022-10-30T18:16:57.405Z,24.20
2022-10-30T18:19:26.566Z,24.20
2022-10-30T18:21:55.905Z,24.20
2022-10-30T18:24:25.076Z,24.20
2022-10-30T18:26:55.839Z,24.20
2022-10-30T18:29:25.151Z,24.20
2022-10-30T18:31:54.383Z,24.20
2022-10-30T18:34:23.548Z,24.20
2022-10-30T18:36:52.732Z,24.20
2022-10-30T18:39:21.829Z,24.20
2022-10-30T18:41:51.191Z,24.20
2022-10-30T18:44:21.494Z,24.10
2022-10-30T18:46:50.548Z,24.10
2022-10-30T18:49:21.447Z,24.10
2022-10-30T18:51:50.504Z,24.10
2022-10-30T18:54:19.559Z,24.10
2022-10-30T18:56:48.632Z,24.10
2022-10-30T18:59:17.687Z,24.10
2022-10-30T19:01:46.938Z,24.00
2022-10-30T19:04:21.667Z,24.00
2022-10-30T19:06:51.928Z,24.00
2022-10-30T19:09:20.990Z,24.00
2022-10-30T19:11:50.090Z,24.00
2022-10-30T19:14:19.228Z,24.00
2022-10-30T19:16:48.284Z,23.90
2022-10-30T19:19:18.932Z,23.90
2022-10-30T19:21:47.977Z,23.90
2022-10-30T19:24:18.705Z,23.90
2022-10-30T19:26:47.859Z,23.90
2022-10-30T19:29:16.961Z,23.90
2022-10-30T19:31:46.082Z,23.80
2022-10-30T19:34:15.208Z,23.80
2022-10-30T19:36:44.960Z,23.80
2022-10-30T19:39:18.866Z,23.80
2022-10-30T19:41:47.903Z,23.70
2022-10-30T19:44:17.813Z,23.70
2022-10-30T19:46:47.189Z,23.70
2022-10-30T19:49:22.007Z,23.70
2022-10-30T19:51:51.092Z,23.60
2022-10-30T19:54:20.516Z,23.60
2022-10-30T19:56:49.636Z,23.60
2022-10-30T19:59:18.852Z,23.50
2022-10-30T20:01:48.007Z,23.50
2022-10-30T20:04:17.133Z,23.50
2022-10-30T20:06:46.210Z,23.50
2022-10-30T20:09:15.331Z,23.40
2022-10-30T20:11:44.541Z,23.40
2022-10-30T20:14:13.594Z,23.40
2022-10-30T20:16:42.651Z,23.40
2022-10-30T20:19:32.919Z,23.30
2022-10-30T20:22:02.061Z,23.30
2022-10-30T20:24:31.130Z,23.30
2022-10-30T20:27:00.527Z,23.20
2022-10-30T20:29:30.840Z,23.20
2022-10-30T20:31:59.934Z,23.20
2022-10-30T20:34:28.997Z,23.20
2022-10-30T20:36:58.082Z,23.20
2022-10-30T20:39:27.147Z,23.20
2022-10-30T20:41:56.233Z,23.10
2022-10-30T20:44:25.262Z,23.10
2022-10-30T20:46:54.315Z,23.10
2022-10-30T20:49:23.368Z,23.10
2022-10-30T20:51:52.497Z,23.10
2022-10-30T20:54:21.632Z,23.10
2022-10-30T20:56:50.621Z,23.10
2022-10-30T20:59:19.727Z,23.00
2022-10-30T21:01:49.302Z,23.00
2022-10-30T21:04:18.445Z,22.90
2022-10-30T21:06:47.566Z,22.90
2022-10-30T21:09:16.711Z,22.80
2022-10-30T21:11:45.799Z,22.80
2022-10-30T21:14:15.085Z,22.70
2022-10-30T21:16:44.144Z,22.70
2022-10-30T21:19:13.247Z,22.70
2022-10-30T21:21:42.429Z,22.60
2022-10-30T21:24:11.742Z,22.60
2022-10-30T21:26:40.833Z,22.60
2022-10-30T21:29:10.359Z,22.50
2022-10-30T21:31:39.410Z,22.50
2022-10-30T21:34:08.555Z,22.50
2022-10-30T21:36:37.986Z,22.50
2022-10-30T21:39:09.255Z,22.50
2022-10-30T21:41:38.376Z,22.50
2022-10-30T21:44:07.643Z,22.50
2022-10-30T21:46:36.729Z,22.50
2022-10-30T21:49:08.798Z,22.50
2022-10-30T21:51:37.891Z,22.40
2022-10-30T21:54:07.132Z,22.40
2022-10-30T21:56:36.465Z,22.40
2022-10-30T21:59:07.726Z,22.40
2022-10-30T22:01:39.633Z,22.40
2022-10-30T22:04:12.221Z,22.40
2022-10-30T22:06:44.824Z,22.40
2022-10-30T22:09:18.442Z,22.40
2022-10-30T22:11:47.597Z,22.50
2022-10-30T22:14:16.724Z,22.50
2022-10-30T22:16:46.213Z,22.40
2022-10-30T22:19:15.343Z,22.50
2022-10-30T22:21:44.399Z,22.40
2022-10-30T22:24:14.665Z,22.40
2022-10-30T22:26:43.836Z,22.40
2022-10-30T22:29:13.763Z,22.40
2022-10-30T22:31:42.830Z,22.40
2022-10-30T22:34:12.022Z,22.40
2022-10-30T22:36:41.078Z,22.30
2022-10-30T22:39:14.737Z,22.20
2022-10-30T22:41:43.979Z,22.20
2022-10-30T22:44:19.599Z,22.20
2022-10-30T22:46:48.727Z,22.10
2022-10-30T22:49:17.885Z,22.10
2022-10-30T22:51:47.149Z,22.10
2022-10-30T22:54:16.374Z,22.10
2022-10-30T22:56:45.561Z,22.10
2022-10-30T22:59:16.035Z,22.10
2022-10-30T23:01:45.564Z,22.10
2022-10-30T23:04:19.069Z,22.10
2022-10-30T23:06:48.163Z,22.10
2022-10-30T23:09:23.099Z,22.10
2022-10-30T23:11:52.671Z,22.10
2022-10-30T23:14:21.920Z,22.10
2022-10-30T23:16:51.092Z,22.10
2022-10-30T23:19:20.224Z,22.10
2022-10-30T23:21:49.474Z,22.10
2022-10-30T23:24:18.608Z,22.10
2022-10-30T23:26:47.771Z,22.10
2022-10-30T23:29:16.962Z,22.00
2022-10-30T23:31:47.074Z,22.00
2022-10-30T23:34:18.420Z,22.00
2022-10-30T23:36:47.690Z,22.00
2022-10-30T23:39:19.277Z,22.00
2022-10-30T23:41:48.640Z,22.00
2022-10-30T23:44:18.496Z,22.00
2022-10-30T23:46:47.702Z,21.90
2022-10-30T23:49:16.831Z,21.90
2022-10-30T23:51:45.933Z,21.90
2022-10-30T23:54:15.091Z,21.90
2022-10-30T23:56:44.223Z,22.00
2022-10-30T23:59:13.334Z,22.00
